Thompson, North Dakota
Current Conditions -  °F | °C
As of 7:53 AM on Friday 19 Dec 2014 (Local Time) from KGFK Reporting Station
Haze Haze  
Wind Chill: 12°   Ceiling: 500
Heat Index: 23°   Visibility: 3mi
Dew Point: 22°   Wind: 10mph
Humidity: 96%   Direction: 160°SSE
Pressure: 30.07"   Gusts: NA
Location:  47.77°N, 97.11°W
Report Text: KGFK 191353Z 16009KT 3SM BR OVC005 M05/M06 A3007 RMK AO2 TWR VIS 4 SLP198 T10501056
Loading
Personal Weather Stations






























Interactive Weather Map New forecast layout! Learn more

10-Day Weather Forecast

Advertisements
Track Severe Weather on mobile